Time;durP1;ratioP1;P1;durP2;ratioP2;P2;SDS_P1;SDS_P2;PMS_P1;PMS_P2;Temp;Humidity;BMP_temperature;BMP_pressure;BME280_temperature;BME280_humidity;BME280_pressure;Samples;Min_cycle;Max_cycle;Signal;HPM_P1;HPM_P2
2022/02/05 00:01:07;;;;;;;25.62;13.35;;;;;;;12.28;34.15;100020.39;1728463;80;21534;-65
2022/02/05 00:03:39;;;;;;;29.80;14.95;;;;;;;12.05;34.14;100015.02;1734401;80;20991;-68
2022/02/05 00:06:03;;;;;;;25.82;12.60;;;;;;;12.10;33.96;100022.27;1727534;82;21167;-69
2022/02/05 00:08:39;;;;;;;21.65;12.60;;;;;;;12.00;34.06;100020.52;1712929;83;20931;-65
2022/02/05 00:19:57;;;;;;;31.62;16.67;;;;;;;11.81;34.06;100018.94;1709504;83;20955;-69
2022/02/05 00:43:13;;;;;;;26.60;13.53;;;;;;;11.10;33.93;100021.87;1646982;85;21151;-68
2022/02/05 00:45:43;;;;;;;23.60;12.47;;;;;;;10.94;34.01;100019.03;1676092;82;21395;-66
2022/02/05 00:48:09;;;;;;;28.65;12.90;;;;;;;10.93;34.05;100019.23;1712530;83;21088;-67
2022/02/05 00:50:40;;;;;;;24.75;13.30;;;;;;;10.77;34.06;100021.64;1712420;83;21018;-66
2022/02/05 00:53:11;;;;;;;29.27;14.23;;;;;;;10.59;34.25;100017.39;1711773;83;20991;-66
2022/02/05 00:55:36;;;;;;;23.05;12.73;;;;;;;10.69;33.96;100020.48;1709816;83;20987;-69
2022/02/05 00:58:05;;;;;;;24.82;12.78;;;;;;;10.47;34.34;100016.60;1712284;83;22316;-66
2022/02/05 01:00:34;;;;;;;24.18;12.53;;;;;;;10.29;34.42;100020.14;1711971;83;20999;-65
2022/02/05 01:03:01;;;;;;;25.20;13.32;;;;;;;10.47;34.17;100023.62;1712530;82;21508;-69
2022/02/05 01:05:28;;;;;;;23.42;12.55;;;;;;;10.38;34.28;100021.64;1725848;81;21003;-69
2022/02/05 01:07:56;;;;;;;21.60;11.68;;;;;;;10.20;34.45;100031.66;1720433;82;21109;-66
2022/02/05 01:10:25;;;;;;;21.77;12.70;;;;;;;10.15;34.48;100024.41;1716689;82;21004;-67
2022/02/05 01:13:00;;;;;;;23.98;13.65;;;;;;;10.06;34.57;100018.20;1716650;82;21078;-65
2022/02/05 01:15:29;;;;;;;25.77;13.48;;;;;;;10.06;34.37;100031.22;1714889;82;21061;-66
2022/02/05 01:18:01;;;;;;;25.50;13.78;;;;;;;10.08;34.42;100037.06;1716039;81;21096;-65
2022/02/05 01:22:50;;;;;;;25.32;12.73;;;;;;;10.10;34.27;100038.47;1715067;82;21170;-63
2022/02/05 01:25:22;;;;;;;26.70;13.55;;;;;;;10.15;34.17;100034.83;1714951;82;21022;-66
2022/02/05 01:27:53;;;;;;;30.57;15.32;;;;;;;10.07;34.29;100032.82;1715872;82;21169;-62
2022/02/05 01:30:30;;;;;;;29.40;15.15;;;;;;;9.80;34.55;100041.65;1716675;82;21079;-65
2022/02/05 01:33:47;;;;;;;27.27;13.62;;;;;;;9.73;34.78;100041.56;1715788;82;21477;-68
2022/02/05 01:52:17;;;;;;;24.32;12.30;;;;;;;9.46;35.43;100058.65;1716604;83;21616;-65
2022/02/05 01:55:02;;;;;;;25.80;14.30;;;;;;;9.41;35.44;100062.30;1715712;82;20979;-64
2022/02/05 01:59:52;;;;;;;25.88;13.95;;;;;;;9.41;35.39;100068.00;1692774;83;21015;-68
2022/02/05 02:05:09;;;;;;;26.35;13.28;;;;;;;9.35;35.73;100073.91;1716785;81;22254;-64
2022/02/05 02:10:23;;;;;;;26.60;14.35;;;;;;;9.23;35.92;100075.66;1688003;83;21509;-62
2022/02/05 02:12:45;;;;;;;26.10;14.98;;;;;;;9.52;35.60;100079.25;1714789;83;20975;-64
2022/02/05 02:15:19;;;;;;;29.12;14.80;;;;;;;9.27;35.91;100070.91;1715450;83;21153;-66
2022/02/05 02:21:18;;;;;;;26.23;13.50;;;;;;;9.32;35.72;100075.56;1716741;82;21086;-62
2022/02/05 02:23:13;;;;;;;27.40;13.72;;;;;;;9.12;35.88;100077.39;1698884;83;21070;-65
2022/02/05 02:28:21;;;;;;;27.93;14.33;;;;;;;9.16;35.96;100078.64;1671117;85;21192;-67
2022/02/05 02:30:52;;;;;;;29.45;15.98;;;;;;;9.24;35.80;100078.59;1687716;84;21063;-63
2022/02/05 02:33:19;;;;;;;28.55;13.53;;;;;;;9.32;35.82;100084.20;1694741;82;22219;-62
2022/02/05 02:35:43;;;;;;;27.45;14.47;;;;;;;9.56;35.37;100089.61;1694887;82;20948;-64
2022/02/05 02:38:11;;;;;;;27.32;14.40;;;;;;;9.47;35.38;100087.61;1696476;82;21090;-63
2022/02/05 02:40:47;;;;;;;25.00;13.22;;;;;;;9.32;35.57;100093.30;1694553;82;21146;-66
2022/02/05 02:43:22;;;;;;;26.25;13.48;;;;;;;9.40;35.56;100095.81;1696018;82;21166;-62
2022/02/05 02:45:46;;;;;;;25.48;13.22;;;;;;;9.34;35.66;100102.22;1695218;84;21509;-63
2022/02/05 02:48:13;;;;;;;27.27;14.05;;;;;;;9.31;35.63;100103.37;1694991;84;21019;-65
2022/02/05 02:56:32;;;;;;;23.30;12.95;;;;;;;9.36;35.47;100110.16;1695171;82;21130;-64
2022/02/05 02:58:58;;;;;;;26.82;14.33;;;;;;;9.35;35.43;100109.83;1695064;84;21080;-67
2022/02/05 03:01:24;;;;;;;24.50;13.15;;;;;;;9.09;35.78;100114.64;1695927;84;21040;-68
2022/02/05 03:03:50;;;;;;;25.85;13.00;;;;;;;9.06;35.71;100110.62;1696237;83;21110;-65
2022/02/05 03:06:17;;;;;;;26.40;13.60;;;;;;;8.86;35.92;100114.67;1695635;84;21145;-65
2022/02/05 03:08:47;;;;;;;28.17;13.55;;;;;;;8.79;36.08;100121.09;1696318;82;21008;-66
2022/02/05 03:11:13;;;;;;;29.82;13.55;;;;;;;8.74;36.07;100118.98;1697904;82;21110;-68
2022/02/05 03:13:42;;;;;;;27.13;13.25;;;;;;;8.82;35.92;100115.52;1695146;84;21131;-66
2022/02/05 03:16:08;;;;;;;26.85;12.85;;;;;;;8.97;35.76;100112.46;1696554;84;21154;-66
2022/02/05 03:18:49;;;;;;;26.97;13.35;;;;;;;9.08;35.37;100101.33;1696594;82;21166;-65
2022/02/05 03:21:09;;;;;;;24.10;11.68;;;;;;;8.98;35.55;100108.09;1695586;82;21007;-67
2022/02/05 03:23:36;;;;;;;24.65;12.45;;;;;;;8.73;35.70;100104.87;1695163;84;20976;-66
2022/02/05 03:26:02;;;;;;;20.00;11.22;;;;;;;8.60;35.97;100104.64;1696513;82;20991;-65
2022/02/05 03:28:32;;;;;;;27.55;14.23;;;;;;;8.71;35.83;100108.13;1696382;82;21019;-64
2022/02/05 03:30:58;;;;;;;36.28;16.05;;;;;;;8.87;35.65;100108.02;1696362;82;21174;-65
2022/02/05 03:33:24;;;;;;;38.17;17.37;;;;;;;9.18;35.17;100113.59;1696278;84;20905;-69
2022/02/05 03:35:51;;;;;;;34.58;16.35;;;;;;;9.03;35.20;100112.77;1695713;82;20991;-64
2022/02/05 03:38:19;;;;;;;30.80;14.78;;;;;;;8.98;35.22;100113.30;1696369;82;20959;-65
2022/02/05 03:40:46;;;;;;;30.65;16.50;;;;;;;9.04;35.10;100112.57;1696515;82;21074;-65
2022/02/05 03:43:12;;;;;;;26.30;14.53;;;;;;;9.06;35.07;100115.81;1696736;84;22010;-66
2022/02/05 03:45:39;;;;;;;23.90;12.43;;;;;;;8.98;35.16;100119.30;1694842;82;20905;-68
2022/02/05 03:48:06;;;;;;;22.77;11.22;;;;;;;8.91;35.24;100116.28;1693641;82;21170;-64
2022/02/05 03:50:33;;;;;;;26.35;12.82;;;;;;;8.99;35.07;100114.91;1696405;82;21140;-63
2022/02/05 03:53:07;;;;;;;22.37;12.18;;;;;;;8.86;35.12;100123.28;1696564;82;21072;-65
2022/02/05 03:55:34;;;;;;;29.00;12.53;;;;;;;8.86;35.08;100123.28;1694925;82;21814;-69
2022/02/05 03:58:01;;;;;;;22.65;11.85;;;;;;;8.78;35.15;100122.05;1696155;82;22506;-65
2022/02/05 04:00:28;;;;;;;23.07;12.10;;;;;;;8.72;35.14;100130.06;1703522;80;21229;-64
2022/02/05 04:02:55;;;;;;;26.48;12.20;;;;;;;8.75;35.11;100137.52;1765616;81;20865;-62
2022/02/05 04:05:21;;;;;;;23.65;12.47;;;;;;;8.96;34.82;100138.64;1767016;81;21544;-61
2022/02/05 04:07:51;;;;;;;25.92;12.88;;;;;;;9.04;34.65;100142.97;1756813;81;21567;-63
2022/02/05 04:10:24;;;;;;;24.50;12.88;;;;;;;8.51;35.07;100151.47;1762628;80;21348;-64
2022/02/05 04:18:15;;;;;;;22.02;11.30;;;;;;;8.75;34.96;100166.56;1766661;81;20877;-61
2022/02/05 04:20:41;;;;;;;25.55;11.75;;;;;;;8.59;34.95;100174.48;1766077;81;22360;-68
2022/02/05 04:23:08;;;;;;;20.23;11.08;;;;;;;8.70;34.84;100181.39;1760104;80;21154;-71
2022/02/05 04:25:34;;;;;;;21.97;11.75;;;;;;;8.49;34.95;100182.52;1766203;81;20959;-61
2022/02/05 04:28:01;;;;;;;18.98;10.23;;;;;;;8.27;35.20;100193.13;1766324;80;21036;-60
2022/02/05 04:30:28;;;;;;;20.65;10.88;;;;;;;8.08;35.48;100192.25;1766333;81;20849;-62
2022/02/05 04:32:55;;;;;;;19.12;10.53;;;;;;;7.98;35.64;100195.02;1751337;81;21155;-61
2022/02/05 04:35:22;;;;;;;28.42;13.10;;;;;;;8.16;35.36;100196.91;1765718;80;21396;-69
2022/02/05 04:37:52;;;;;;;20.23;10.70;;;;;;;8.17;35.17;100199.02;1766265;80;21082;-63
2022/02/05 04:40:35;;;;;;;22.45;11.38;;;;;;;8.21;34.99;100204.19;1764935;80;20961;-63
2022/02/05 04:59:24;;;;;;;28.62;14.45;;;;;;;8.08;35.15;100225.50;1765652;80;21391;-63
2022/02/05 05:01:48;;;;;;;26.77;13.55;;;;;;;8.05;35.00;100220.14;1762317;80;20897;-65
2022/02/05 05:09:51;;;;;;;32.20;15.18;;;;;;;7.58;35.40;100238.73;1766540;81;21581;-61
2022/02/05 05:20:07;;;;;;;26.00;12.82;;;;;;;8.00;34.91;100223.74;1766271;81;21071;-67
2022/02/05 05:22:34;;;;;;;22.77;11.85;;;;;;;8.03;35.15;100226.02;1766012;81;21573;-62
2022/02/05 05:25:01;;;;;;;23.42;10.65;;;;;;;8.24;35.22;100233.72;1766122;80;21135;-65
2022/02/05 05:27:27;;;;;;;18.12;10.18;;;;;;;8.33;35.37;100229.30;1765612;80;20999;-65
2022/02/05 05:29:54;;;;;;;23.73;11.97;;;;;;;8.49;35.55;100232.67;1766135;81;21392;-64
2022/02/05 05:32:21;;;;;;;22.00;10.93;;;;;;;8.52;35.74;100238.00;1765450;81;21544;-65
2022/02/05 05:34:48;;;;;;;19.92;9.90;;;;;;;8.74;35.77;100237.23;1766052;80;21149;-63
2022/02/05 05:37:16;;;;;;;17.57;9.35;;;;;;;9.48;35.19;100236.72;1759691;81;21124;-66
2022/02/05 05:39:44;;;;;;;16.93;9.00;;;;;;;9.45;35.04;100227.46;1748493;81;21552;-66
2022/02/05 05:42:15;;;;;;;20.43;11.10;;;;;;;9.82;34.81;100230.22;1745180;80;21470;-66
2022/02/05 05:52:22;;;;;;;19.98;10.20;;;;;;;12.47;32.04;100222.20;1749109;80;21558;-61
2022/02/05 05:54:49;;;;;;;16.37;8.93;;;;;;;12.56;31.78;100226.75;1756506;80;21102;-60
2022/02/05 05:57:16;;;;;;;18.65;10.60;;;;;;;12.99;31.72;100227.23;1752537;80;21573;-68
2022/02/05 05:59:43;;;;;;;17.95;10.78;;;;;;;13.68;31.10;100222.15;1748436;80;21607;-65
2022/02/05 06:02:10;;;;;;;22.05;12.03;;;;;;;14.31;30.39;100215.80;1755762;80;22087;-67
2022/02/05 06:04:38;;;;;;;20.23;10.53;;;;;;;14.85;29.84;100219.00;1750540;80;21541;-66
2022/02/05 06:07:05;;;;;;;17.23;10.93;;;;;;;15.43;29.24;100215.33;1747783;80;21161;-69
2022/02/05 06:09:34;;;;;;;18.77;10.93;;;;;;;16.01;28.72;100213.66;1744194;81;21294;-67
2022/02/05 06:12:01;;;;;;;16.00;10.63;;;;;;;16.52;28.43;100209.81;1748142;80;21594;-68
2022/02/05 06:14:28;;;;;;;17.12;11.10;;;;;;;17.05;27.73;100214.34;1758097;80;21164;-70
2022/02/05 06:17:07;;;;;;;18.15;12.05;;;;;;;17.52;27.15;100207.78;1719674;82;22743;-68
2022/02/05 06:19:26;;;;;;;15.90;10.25;;;;;;;18.01;26.11;100208.84;1758353;80;21112;-69
2022/02/05 06:21:54;;;;;;;13.97;9.33;;;;;;;18.28;25.85;100202.52;1761859;80;21011;-68
2022/02/05 06:24:21;;;;;;;16.27;10.50;;;;;;;18.60;25.25;100201.02;1759133;80;21855;-69
2022/02/05 06:26:47;;;;;;;13.93;9.70;;;;;;;18.97;24.80;100197.95;1756271;80;21307;-68
2022/02/05 06:29:14;;;;;;;14.40;9.97;;;;;;;19.22;24.75;100200.73;1761936;80;21121;-67
2022/02/05 06:31:41;;;;;;;14.17;10.47;;;;;;;19.50;24.35;100195.31;1748037;80;21722;-67
2022/02/05 06:34:08;;;;;;;15.27;10.73;;;;;;;20.06;23.51;100199.23;1762527;80;21467;-66
2022/02/05 06:36:34;;;;;;;14.73;10.33;;;;;;;20.06;23.51;100199.23;1698022;82;21449;-66
2022/02/05 06:39:03;;;;;;;14.40;9.77;;;;;;;20.31;22.80;100199.53;1724892;82;21724;-67
2022/02/05 06:41:29;;;;;;;14.50;9.53;;;;;;;20.02;23.26;100200.78;1711887;82;21655;-64
2022/02/05 06:43:57;;;;;;;12.60;9.23;;;;;;;20.59;23.09;100194.54;1762882;80;21692;-67
2022/02/05 06:46:24;;;;;;;13.07;9.07;;;;;;;20.80;22.94;100195.54;1757605;80;21671;-65
2022/02/05 06:48:53;;;;;;;11.93;8.53;;;;;;;20.88;22.30;100193.75;1757898;81;22478;-62
2022/02/05 06:51:19;;;;;;;12.23;8.50;;;;;;;21.13;22.30;100194.45;1752745;80;22590;-66
2022/02/05 06:53:46;;;;;;;13.43;8.73;;;;;;;20.91;22.45;100191.12;1751193;80;21713;-70
2022/02/05 06:56:12;;;;;;;12.77;8.23;;;;;;;20.97;22.13;100195.39;1746164;80;21116;-61
2022/02/05 06:58:38;;;;;;;11.93;8.40;;;;;;;21.13;22.39;100195.77;1754012;80;21552;-65
2022/02/05 07:01:05;;;;;;;10.30;7.63;;;;;;;21.38;22.49;100204.47;1752437;80;21134;-61
2022/02/05 07:03:31;;;;;;;12.60;7.73;;;;;;;21.44;22.60;100206.64;1753022;80;21094;-62
2022/02/05 07:05:59;;;;;;;9.40;7.13;;;;;;;21.38;23.29;100204.47;1755767;80;20996;-62
2022/02/05 07:08:26;;;;;;;10.03;6.43;;;;;;;21.68;22.12;100204.91;1749245;80;22357;-63
2022/02/05 07:10:54;;;;;;;10.30;7.80;;;;;;;21.44;21.68;100201.84;1743708;80;21681;-63
2022/02/05 07:13:21;;;;;;;10.10;6.83;;;;;;;20.70;22.37;100205.23;1753327;80;21181;-62
2022/02/05 07:16:02;;;;;;;8.47;5.87;;;;;;;20.47;22.51;100204.46;1748706;81;21002;-69
2022/02/05 07:18:36;;;;;;;8.63;5.93;;;;;;;20.28;22.58;100202.67;1745213;80;21538;-70
2022/02/05 07:21:07;;;;;;;8.20;5.55;;;;;;;19.95;22.86;100200.96;1752356;81;20999;-62
2022/02/05 07:31:33;;;;;;;5.67;4.20;;;;;;;19.93;23.54;100200.42;1749335;80;22303;-67
2022/02/05 07:34:00;;;;;;;6.60;4.73;;;;;;;20.31;23.10;100200.86;1759113;80;21039;-64
2022/02/05 07:36:28;;;;;;;6.93;5.20;;;;;;;20.38;23.19;100197.99;1749762;80;20921;-61
2022/02/05 07:38:55;;;;;;;8.40;6.17;;;;;;;20.32;23.10;100205.63;1750824;80;20834;-62
2022/02/05 07:41:21;;;;;;;8.03;5.33;;;;;;;20.56;23.16;100205.63;1750193;80;21130;-63
2022/02/05 07:43:48;;;;;;;8.40;4.93;;;;;;;20.55;23.35;100207.21;1758678;80;21533;-63
2022/02/05 07:46:16;;;;;;;7.33;4.93;;;;;;;20.60;22.90;100204.61;1748429;80;21594;-65
2022/02/05 07:48:42;;;;;;;7.73;5.67;;;;;;;20.34;22.76;100199.05;1759054;80;21009;-64
2022/02/05 07:51:10;;;;;;;11.13;6.57;;;;;;;20.04;22.96;100202.64;1750908;80;21043;-61
2022/02/05 07:53:36;;;;;;;7.07;5.13;;;;;;;20.01;22.67;100207.92;1748034;80;21110;-64
2022/02/05 07:56:05;;;;;;;8.20;5.67;;;;;;;20.31;23.97;100212.77;1750347;80;21178;-64
2022/02/05 07:58:34;;;;;;;10.00;6.70;;;;;;;20.55;23.37;100216.48;1760281;80;20956;-64
2022/02/05 08:01:03;;;;;;;9.37;6.77;;;;;;;20.91;23.18;100207.02;1753615;80;21639;-66
2022/02/05 08:03:30;;;;;;;7.50;5.70;;;;;;;21.32;23.53;100207.30;1752964;80;21000;-69
2022/02/05 08:06:00;;;;;;;7.37;5.57;;;;;;;21.32;23.53;100207.30;1762874;80;22159;-64
2022/02/05 08:08:30;;;;;;;7.80;6.10;;;;;;;21.38;23.73;100208.98;1758975;80;21463;-63
2022/02/05 08:11:03;;;;;;;7.23;5.60;;;;;;;21.43;23.54;100208.20;1747728;80;20960;-62
2022/02/05 08:13:30;;;;;;;7.53;5.57;;;;;;;21.47;23.58;100206.64;1751470;80;21103;-67
2022/02/05 08:16:10;;;;;;;7.73;5.83;;;;;;;21.62;23.58;100207.52;1744050;80;22225;-66
2022/02/05 08:18:26;;;;;;;8.23;6.33;;;;;;;21.20;24.09;100207.50;1758976;80;21113;-63
2022/02/05 08:20:52;;;;;;;8.53;6.63;;;;;;;21.14;24.04;100205.88;1757217;80;21097;-64
2022/02/05 08:23:19;;;;;;;9.90;6.57;;;;;;;20.82;23.85;100202.69;1756428;80;21138;-66
2022/02/05 08:25:45;;;;;;;10.57;7.90;;;;;;;20.57;24.90;100204.60;1762234;80;20929;-68
2022/02/05 08:28:13;;;;;;;9.30;7.10;;;;;;;20.42;24.57;100204.41;1758736;80;21379;-70
2022/02/05 08:30:39;;;;;;;9.97;8.13;;;;;;;20.36;24.95;100201.42;1754438;80;21119;-70
2022/02/05 08:33:06;;;;;;;9.47;6.90;;;;;;;19.93;24.73;100200.42;1743118;80;21084;-66
2022/02/05 08:35:33;;;;;;;9.13;6.60;;;;;;;19.85;24.78;100208.27;1746125;80;21051;-68
2022/02/05 08:38:00;;;;;;;10.30;7.47;;;;;;;19.62;25.31;100205.81;1743778;80;22320;-72
2022/02/05 08:40:27;;;;;;;11.20;7.43;;;;;;;19.63;25.25;100204.80;1757826;80;22350;-66
2022/02/05 08:42:54;;;;;;;11.63;8.57;;;;;;;19.29;25.60;100204.02;1751778;80;21724;-68
2022/02/05 08:45:21;;;;;;;11.10;7.73;;;;;;;19.04;25.76;100203.09;1750102;80;21761;-66
2022/02/05 08:47:48;;;;;;;11.27;7.90;;;;;;;19.31;26.31;100201.38;1743477;80;21439;-65
2022/02/05 08:50:14;;;;;;;12.20;8.03;;;;;;;19.73;26.14;100196.17;1765610;80;21409;-65
2022/02/05 08:52:41;;;;;;;12.00;8.53;;;;;;;19.73;26.14;100196.17;1764369;80;21562;-68
2022/02/05 08:55:09;;;;;;;12.37;7.70;;;;;;;20.07;25.78;100192.36;1763268;80;21551;-72
2022/02/05 08:57:39;;;;;;;11.60;8.23;;;;;;;20.06;26.23;100189.45;1693761;83;21568;-74
2022/02/05 09:00:15;;;;;;;10.47;7.40;;;;;;;20.11;25.91;100183.41;1699726;83;21549;-67
2022/02/05 09:05:34;;;;;;;10.57;8.10;;;;;;;19.75;26.66;100186.17;1710641;81;21442;-77
2022/02/05 09:07:45;;;;;;;10.40;7.17;;;;;;;19.78;26.17;100184.36;1746093;81;21696;-69
2022/02/05 09:10:49;;;;;;;13.07;7.80;;;;;;;19.62;26.09;100192.09;1746475;81;21507;-66
2022/02/05 09:13:07;;;;;;;12.20;8.03;;;;;;;19.16;25.81;100194.02;1750690;81;21538;-68
2022/02/05 09:15:13;;;;;;;11.83;7.43;;;;;;;18.74;26.14;100190.17;1749479;80;21850;-67
2022/02/05 09:17:40;;;;;;;10.87;6.97;;;;;;;18.58;26.21;100195.16;1758283;80;21329;-83
2022/02/05 09:20:08;;;;;;;9.67;7.17;;;;;;;18.58;26.29;100188.56;1747654;80;21245;-68
2022/02/05 09:22:36;;;;;;;9.93;6.80;;;;;;;18.33;26.35;100185.45;1754319;80;21257;-69
2022/02/05 09:25:05;;;;;;;10.83;7.67;;;;;;;18.37;26.73;100187.90;1750524;80;21631;-67
2022/02/05 09:27:38;;;;;;;9.57;7.03;;;;;;;18.14;26.34;100190.91;1755932;80;21550;-69
2022/02/05 09:30:03;;;;;;;10.10;6.87;;;;;;;18.19;26.54;100192.34;1756003;80;21134;-74
2022/02/05 09:32:28;;;;;;;10.83;7.60;;;;;;;18.38;27.01;100186.88;1755196;80;21335;-68
2022/02/05 09:34:57;;;;;;;10.57;7.87;;;;;;;18.58;26.62;100186.44;1752151;80;21371;-67
2022/02/05 09:37:23;;;;;;;13.67;8.30;;;;;;;18.52;26.91;100186.05;1751157;80;21406;-67
2022/02/05 09:39:50;;;;;;;15.97;11.67;;;;;;;18.51;27.18;100183.14;1759036;80;21227;-79
2022/02/05 09:42:17;;;;;;;12.73;8.50;;;;;;;18.71;26.68;100185.66;1760800;80;21488;-67
2022/02/05 09:44:44;;;;;;;15.73;9.67;;;;;;;18.61;26.66;100195.21;1751036;80;21256;-68
2022/02/05 09:47:10;;;;;;;13.30;8.00;;;;;;;18.52;26.70;100188.17;1754475;80;21723;-66
2022/02/05 09:49:38;;;;;;;11.83;7.10;;;;;;;18.53;26.42;100182.41;1755512;80;21221;-65
2022/02/05 09:52:22;;;;;;;12.47;7.63;;;;;;;18.38;26.05;100190.84;1751592;80;21254;-81
2022/02/05 09:54:45;;;;;;;11.00;7.40;;;;;;;18.48;25.91;100187.05;1752856;80;21031;-66
2022/02/05 09:57:11;;;;;;;11.77;7.60;;;;;;;18.10;26.00;100199.00;1745461;80;21125;-67
2022/02/05 09:59:48;;;;;;;12.17;8.13;;;;;;;17.86;26.81;100190.88;1762860;80;21202;-65
2022/02/05 10:02:28;;;;;;;13.15;8.45;;;;;;;17.88;26.37;100195.38;1744173;81;21262;-68
2022/02/05 10:04:59;;;;;;;10.40;7.42;;;;;;;17.87;26.50;100192.47;1738462;81;20933;-66
2022/02/05 10:07:25;;;;;;;16.20;9.05;;;;;;;17.91;26.25;100197.56;1745402;81;21592;-77
2022/02/05 10:10:00;;;;;;;14.00;9.23;;;;;;;17.75;25.78;100194.61;1738869;81;21108;-68
2022/02/05 10:12:27;;;;;;;12.50;8.55;;;;;;;17.37;25.57;100193.74;1741268;81;20980;-64
2022/02/05 10:14:56;;;;;;;11.33;8.10;;;;;;;16.95;25.66;100193.02;1747854;80;22578;-73
2022/02/05 10:17:43;;;;;;;11.78;7.10;;;;;;;16.90;25.61;100195.54;1750727;80;21011;-71
2022/02/05 10:20:12;;;;;;;11.97;7.33;;;;;;;16.50;25.91;100196.86;1748267;80;20955;-69
2022/02/05 10:22:46;;;;;;;10.43;6.62;;;;;;;16.26;26.28;100204.38;1744979;80;21189;-72
2022/02/05 10:25:23;;;;;;;11.95;7.45;;;;;;;15.79;26.71;100203.56;1698060;82;21083;-73
2022/02/05 10:27:51;;;;;;;8.93;6.28;;;;;;;15.68;26.82;100196.92;1728512;80;21805;-61
2022/02/05 10:30:28;;;;;;;12.23;7.28;;;;;;;15.47;27.11;100198.11;1758504;80;21475;-66
2022/02/05 10:33:07;;;;;;;9.98;6.22;;;;;;;15.54;27.79;100204.91;1763885;81;20980;-64
2022/02/05 10:36:04;;;;;;;11.50;7.28;;;;;;;15.89;27.66;100199.64;1754142;80;21273;-63
2022/02/05 10:44:15;;;;;;;10.90;7.03;;;;;;;16.56;27.24;100185.97;1761252;80;21027;-73
2022/02/05 10:46:43;;;;;;;;;;;;;;;16.93;27.01;100189.80;1765120;80;21003;-66
2022/02/05 10:49:12;;;;;;;12.15;7.83;;;;;;;17.27;26.94;100190.86;1762554;80;21152;-65
2022/02/05 10:51:47;;;;;;;10.85;7.33;;;;;;;17.71;27.05;100197.39;1759439;80;20980;-72
2022/02/05 10:54:32;;;;;;;12.20;7.45;;;;;;;18.22;26.85;100185.28;1761840;80;21097;-64
2022/02/05 10:57:07;;;;;;;11.38;7.47;;;;;;;18.65;26.13;100175.22;1756231;80;21046;-66
2022/02/05 11:00:01;;;;;;;12.13;7.47;;;;;;;18.54;25.81;100174.23;1763964;81;20904;-73
2022/02/05 11:05:16;;;;;;;11.28;8.10;;;;;;;19.05;24.82;100173.77;1747887;81;20976;-65
2022/02/05 11:07:38;;;;;;;11.22;7.22;;;;;;;19.30;24.45;100172.56;1766158;80;21058;-64
2022/02/05 11:10:07;;;;;;;13.08;7.47;;;;;;;19.10;24.46;100168.58;1766284;80;21549;-64
2022/02/05 11:15:56;;;;;;;10.95;7.17;;;;;;;18.80;24.83;100163.63;1766227;81;22158;-62
2022/02/05 11:20:38;;;;;;;12.07;7.45;;;;;;;18.90;24.46;100161.16;1765867;80;20960;-73
2022/02/05 11:23:09;;;;;;;11.00;7.20;;;;;;;18.88;24.72;100159.26;1766242;80;21474;-63
2022/02/05 11:25:38;;;;;;;10.38;6.90;;;;;;;18.86;24.71;100161.32;1766604;81;21465;-63
2022/02/05 11:28:06;;;;;;;11.10;7.30;;;;;;;18.96;24.67;100154.09;1766319;80;21925;-73
2022/02/05 11:30:43;;;;;;;11.15;7.20;;;;;;;18.79;24.32;100151.95;1766064;81;21001;-76
2022/02/05 11:33:20;;;;;;;9.43;6.62;;;;;;;18.47;24.63;100156.42;1765666;80;21150;-61
2022/02/05 11:38:33;;;;;;;9.70;6.47;;;;;;;18.01;24.71;100164.02;1758263;80;21050;-62
2022/02/05 11:41:01;;;;;;;11.53;6.70;;;;;;;18.07;24.71;100160.41;1760241;80;21095;-62
2022/02/05 11:43:37;;;;;;;12.47;7.05;;;;;;;17.84;24.83;100161.28;1765509;81;20949;-71
2022/02/05 11:46:14;;;;;;;10.43;6.58;;;;;;;17.78;24.96;100163.55;1766047;81;21511;-72
2022/02/05 11:48:54;;;;;;;9.53;6.33;;;;;;;17.38;25.22;100161.61;1766352;80;20993;-67
2022/02/05 11:51:50;;;;;;;11.57;6.67;;;;;;;17.18;25.42;100158.80;1765918;80;20924;-62
2022/02/05 11:54:15;;;;;;;10.38;7.53;;;;;;;17.11;25.63;100160.74;1765720;80;21176;-62
2022/02/05 11:57:01;;;;;;;12.07;7.35;;;;;;;16.99;25.78;100162.56;1766183;81;20956;-65
2022/02/05 11:59:35;;;;;;;10.33;6.57;;;;;;;16.90;25.79;100162.11;1765063;80;21141;-67
2022/02/05 12:02:20;;;;;;;11.60;7.45;;;;;;;16.80;25.63;100163.17;1765360;80;21514;-62
2022/02/05 12:04:46;;;;;;;10.05;6.67;;;;;;;16.72;25.45;100169.53;1766320;80;21071;-74
2022/02/05 12:07:14;;;;;;;9.33;6.42;;;;;;;16.90;25.40;100163.94;1765865;81;21487;-63
2022/02/05 12:09:49;;;;;;;10.88;6.97;;;;;;;16.67;25.82;100169.41;1766207;81;21074;-61
2022/02/05 12:12:36;;;;;;;10.48;6.97;;;;;;;16.68;25.83;100167.58;1765929;81;21494;-61
2022/02/05 12:15:18;;;;;;;10.98;6.90;;;;;;;16.61;25.72;100166.35;1765793;80;21049;-61
2022/02/05 12:18:10;;;;;;;10.32;6.72;;;;;;;16.69;25.84;100171.29;1765434;80;21008;-62
2022/02/05 12:23:32;;;;;;;10.23;6.75;;;;;;;16.14;26.42;100170.13;1765968;81;21466;-62
2022/02/05 12:26:04;;;;;;;9.88;5.97;;;;;;;16.13;26.29;100179.53;1764817;80;20921;-75
2022/02/05 12:28:35;;;;;;;9.68;6.08;;;;;;;16.32;25.89;100166.64;1763152;81;20979;-62
2022/02/05 12:31:05;;;;;;;9.90;6.35;;;;;;;16.28;25.70;100166.28;1765911;81;20991;-63
2022/02/05 12:33:49;;;;;;;11.35;7.00;;;;;;;16.30;25.86;100168.71;1762599;81;21175;-73
2022/02/05 12:36:43;;;;;;;11.30;6.55;;;;;;;16.17;25.93;100169.66;1766237;80;21035;-63
2022/02/05 12:39:30;;;;;;;9.93;6.28;;;;;;;16.38;25.71;100163.65;1762795;81;21009;-63
2022/02/05 12:42:02;;;;;;;10.65;6.55;;;;;;;16.28;25.91;100170.75;1762775;80;21008;-71
2022/02/05 12:44:29;;;;;;;;;;;;;;;16.30;25.98;100160.30;1768433;81;21602;-63
2022/02/05 12:47:05;;;;;;;9.98;6.50;;;;;;;16.32;25.89;100160.58;1766245;81;21181;-61
2022/02/05 12:49:39;;;;;;;11.55;7.08;;;;;;;16.30;25.83;100167.39;1765412;80;21077;-61
2022/02/05 12:52:01;;;;;;;11.97;6.62;;;;;;;16.15;25.90;100166.98;1761955;80;21126;-74
2022/02/05 12:54:29;;;;;;;9.03;6.10;;;;;;;16.26;25.78;100168.34;1762337;80;21158;-62
2022/02/05 12:56:58;;;;;;;10.10;7.05;;;;;;;16.32;25.46;100161.90;1763723;80;21439;-63
2022/02/05 12:59:38;;;;;;;10.95;7.15;;;;;;;16.07;25.63;100169.92;1762757;80;21264;-63
2022/02/05 13:02:07;;;;;;;10.68;6.12;;;;;;;16.03;25.55;100176.13;1761632;80;20931;-74
2022/02/05 13:04:37;;;;;;;9.98;6.50;;;;;;;15.83;25.45;100180.80;1757106;80;21079;-62
2022/02/05 13:07:16;;;;;;;9.55;6.62;;;;;;;15.27;25.85;100189.91;1764804;80;20992;-62
2022/02/05 13:09:55;;;;;;;11.30;6.70;;;;;;;15.03;26.18;100194.62;1756146;80;21043;-63
2022/02/05 13:12:24;;;;;;;12.07;7.30;;;;;;;15.05;26.39;100191.30;1758451;80;21333;-63
2022/02/05 13:15:04;;;;;;;10.60;6.97;;;;;;;14.95;26.52;100188.34;1766233;81;21011;-64
2022/02/05 13:17:53;;;;;;;11.80;7.12;;;;;;;15.07;26.53;100195.30;1765897;81;21028;-76
2022/02/05 13:26:17;;;;;;;11.55;7.40;;;;;;;14.21;26.92;100184.00;1762749;81;21294;-76
2022/02/05 13:29:18;;;;;;;;;;;;;;;14.24;26.96;100191.42;1768483;80;20988;-67
2022/02/05 13:34:13;;;;;;;10.53;6.95;;;;;;;14.05;27.06;100188.38;1763428;81;21098;-75
2022/02/05 13:36:57;;;;;;;12.68;7.42;;;;;;;13.76;27.35;100194.93;1762789;81;20928;-63
2022/02/05 13:39:41;;;;;;;12.82;7.25;;;;;;;13.56;27.64;100193.63;1764926;80;21128;-78
2022/02/05 13:42:03;;;;;;;11.50;7.05;;;;;;;13.36;27.75;100189.23;1761274;80;21009;-64
2022/02/05 13:45:03;;;;;;;12.45;7.80;;;;;;;13.34;27.93;100184.72;1762289;81;20991;-64
2022/02/05 13:47:51;;;;;;;22.20;11.68;;;;;;;13.41;28.00;100182.10;1742577;81;38253;-74
2022/02/05 13:50:28;;;;;;;15.93;10.47;;;;;;;13.50;28.00;100178.75;1766605;81;20880;-68
2022/02/05 13:53:02;;;;;;;15.03;8.95;;;;;;;13.19;28.25;100181.47;1766164;81;21796;-72
2022/02/05 13:55:37;;;;;;;16.27;10.23;;;;;;;12.98;28.57;100178.53;1766005;80;21622;-59
2022/02/05 13:58:07;;;;;;;19.40;11.05;;;;;;;13.05;28.57;100176.73;1729095;82;21080;-61
2022/02/05 14:00:53;;;;;;;15.23;8.93;;;;;;;13.00;28.53;100175.73;1729423;82;21055;-61
2022/02/05 14:03:41;;;;;;;11.73;6.95;;;;;;;12.89;28.58;100187.09;1717834;83;21012;-63